Time;durP1;ratioP1;P1;durP2;ratioP2;P2;SDS_P1;SDS_P2;PMS_P1;PMS_P2;Temp;Humidity;BMP_temperature;BMP_pressure;BME280_temperature;BME280_humidity;BME280_pressure;Samples;Min_cycle;Max_cycle;Signal;HPM_P1;HPM_P2
2023/06/14 00:00:43;;;;;;;5.10;4.70;;;14.20;95.80;;;;;;4996259;28;20429;-57
2023/06/14 00:03:09;;;;;;;6.28;5.25;;;14.10;96.60;;;;;;4996850;28;20134;-57
2023/06/14 00:05:40;;;;;;;6.70;4.18;;;13.90;97.90;;;;;;4996233;28;20474;-57
2023/06/14 00:08:09;;;;;;;5.35;4.65;;;13.80;99.40;;;;;;4996301;28;20037;-58
2023/06/14 00:10:36;;;;;;;10.02;5.25;;;13.60;99.90;;;;;;4997912;28;20026;-58
2023/06/14 00:13:05;;;;;;;5.88;5.38;;;13.40;99.90;;;;;;4997670;28;20109;-58
2023/06/14 00:15:34;;;;;;;6.50;5.32;;;13.30;99.90;;;;;;4996647;28;20945;-57
2023/06/14 00:18:03;;;;;;;6.63;5.10;;;13.20;99.90;;;;;;4999983;28;20041;-56
2023/06/14 00:20:30;;;;;;;6.75;6.10;;;13.10;99.90;;;;;;4997467;28;20541;-56
2023/06/14 00:22:56;;;;;;;5.65;5.25;;;13.00;99.90;;;;;;4995147;28;20113;-56
2023/06/14 00:25:25;;;;;;;5.75;5.25;;;12.90;99.90;;;;;;4996820;28;20093;-57
2023/06/14 00:27:51;;;;;;;5.43;4.85;;;12.90;99.90;;;;;;4996471;28;20113;-56
2023/06/14 00:30:17;;;;;;;9.43;5.35;;;13.00;99.90;;;;;;4996267;28;20109;-56
2023/06/14 00:32:44;;;;;;;5.57;4.53;;;13.10;99.90;;;;;;4997159;28;20141;-57
2023/06/14 00:35:10;;;;;;;5.60;5.10;;;13.10;99.90;;;;;;4997744;28;20036;-58
2023/06/14 00:37:36;;;;;;;5.57;5.10;;;13.20;99.90;;;;;;4994986;28;20022;-56
2023/06/14 00:40:03;;;;;;;8.35;5.07;;;13.30;99.90;;;;;;4994255;28;20044;-58
2023/06/14 00:42:29;;;;;;;6.05;5.47;;;13.30;99.90;;;;;;4995295;28;20136;-57
2023/06/14 00:44:55;;;;;;;7.53;4.78;;;13.40;99.90;;;;;;4998808;28;20142;-57
2023/06/14 00:47:21;;;;;;;5.05;4.55;;;13.40;99.90;;;;;;4994890;28;20078;-58
2023/06/14 00:49:48;;;;;;;5.15;3.88;;;13.50;99.90;;;;;;4995756;28;20398;-56
2023/06/14 00:52:15;;;;;;;7.22;4.60;;;13.50;99.90;;;;;;5002190;28;20498;-58
2023/06/14 00:54:41;;;;;;;5.40;4.80;;;13.60;99.90;;;;;;4994556;28;20038;-57
2023/06/14 00:57:07;;;;;;;4.80;4.50;;;13.50;99.90;;;;;;4995965;28;20398;-57
2023/06/14 00:59:37;;;;;;;5.55;5.15;;;13.30;99.90;;;;;;4999172;28;20050;-56
2023/06/14 01:02:03;;;;;;;7.78;5.22;;;13.00;99.90;;;;;;4996477;28;20105;-57
2023/06/14 01:04:28;;;;;;;6.63;5.22;;;13.00;99.90;;;;;;4998228;28;20106;-58
2023/06/14 01:07:28;;;;;;;5.93;5.40;;;12.90;99.90;;;;;;4994038;28;20069;-56
2023/06/14 01:10:21;;;;;;;5.03;4.63;;;12.80;99.90;;;;;;4995340;28;20026;-57
2023/06/14 01:12:58;;;;;;;6.25;5.10;;;12.70;99.90;;;;;;4995733;28;20053;-58
2023/06/14 01:15:24;;;;;;;8.07;5.47;;;12.60;99.90;;;;;;4994407;28;20104;-58
2023/06/14 01:17:51;;;;;;;6.03;5.40;;;12.50;99.90;;;;;;4996661;28;20026;-56
2023/06/14 01:20:20;;;;;;;5.88;5.35;;;12.40;99.90;;;;;;4996313;28;20036;-57
2023/06/14 01:22:52;;;;;;;7.75;5.22;;;12.30;99.90;;;;;;4995965;28;20516;-57
2023/06/14 01:25:26;;;;;;;6.70;5.50;;;12.30;99.90;;;;;;4997522;28;20047;-57
2023/06/14 01:28:02;;;;;;;10.95;5.72;;;12.30;99.90;;;;;;4994536;28;20030;-57
2023/06/14 01:30:29;;;;;;;6.38;5.38;;;12.20;99.90;;;;;;4998419;28;20037;-56
2023/06/14 01:32:56;;;;;;;5.47;5.07;;;12.00;99.90;;;;;;4996080;28;20383;-57
2023/06/14 01:35:22;;;;;;;6.93;6.30;;;11.90;99.90;;;;;;4995348;28;20570;-57
2023/06/14 01:37:48;;;;;;;6.93;5.95;;;11.80;99.90;;;;;;4993281;28;20133;-57
2023/06/14 01:40:15;;;;;;;6.38;5.20;;;11.80;99.90;;;;;;4995430;28;20061;-56
2023/06/14 01:42:42;;;;;;;6.30;5.13;;;11.90;99.90;;;;;;4995978;28;20034;-57
2023/06/14 01:45:10;;;;;;;8.43;5.07;;;11.90;99.90;;;;;;4994965;28;20113;-58
2023/06/14 01:47:36;;;;;;;7.80;6.43;;;11.90;99.90;;;;;;4994724;28;20023;-58
2023/06/14 01:50:05;;;;;;;6.78;6.28;;;12.00;99.90;;;;;;4996100;28;20545;-57
2023/06/14 01:52:31;;;;;;;6.65;5.95;;;12.00;99.90;;;;;;4995972;28;20032;-57
2023/06/14 01:54:57;;;;;;;6.72;6.20;;;12.00;99.90;;;;;;4995764;28;20034;-56
2023/06/14 01:57:25;;;;;;;7.00;6.28;;;12.00;99.90;;;;;;4995011;28;20030;-57
2023/06/14 01:59:50;;;;;;;11.73;6.10;;;12.10;99.90;;;;;;4993085;28;20160;-57
2023/06/14 02:02:16;;;;;;;7.05;5.75;;;12.10;99.90;;;;;;4997424;28;20042;-57
2023/06/14 02:04:42;;;;;;;6.63;6.03;;;12.10;99.90;;;;;;4997196;28;20026;-56
2023/06/14 02:07:08;;;;;;;7.20;6.53;;;12.00;99.90;;;;;;4994045;28;20510;-57
2023/06/14 02:09:34;;;;;;;6.82;6.18;;;12.00;99.90;;;;;;4998714;28;20531;-57
2023/06/14 02:12:00;;;;;;;6.25;5.65;;;12.00;99.90;;;;;;5000766;28;20426;-57
2023/06/14 02:14:26;;;;;;;7.68;6.35;;;11.90;99.90;;;;;;4995655;28;20026;-57
2023/06/14 02:16:53;;;;;;;6.28;5.68;;;11.90;99.90;;;;;;4996419;28;20478;-57
2023/06/14 02:19:20;;;;;;;8.57;6.45;;;11.90;99.90;;;;;;4996931;28;20022;-58
2023/06/14 02:21:46;;;;;;;6.63;6.00;;;11.90;99.90;;;;;;4999765;28;20026;-57
2023/06/14 02:24:12;;;;;;;6.93;6.07;;;12.00;99.90;;;;;;4995327;28;20056;-58
2023/06/14 02:26:38;;;;;;;7.05;6.38;;;12.00;99.90;;;;;;4996735;28;20117;-57
2023/06/14 02:29:14;;;;;;;10.43;6.28;;;11.90;99.90;;;;;;4997731;28;20045;-56
2023/06/14 02:31:40;;;;;;;6.70;6.10;;;11.90;99.90;;;;;;4998004;28;20026;-56
2023/06/14 02:34:08;;;;;;;6.95;6.43;;;11.80;99.90;;;;;;4999710;28;20030;-57
2023/06/14 02:36:34;;;;;;;6.47;5.85;;;11.80;99.90;;;;;;4999731;28;20665;-56
2023/06/14 02:39:00;;;;;;;7.07;6.38;;;11.70;99.90;;;;;;5000006;28;20026;-58
2023/06/14 02:41:26;;;;;;;7.88;5.93;;;11.60;99.90;;;;;;4997615;28;20687;-57
2023/06/14 02:43:52;;;;;;;7.30;6.70;;;11.60;99.90;;;;;;4998824;28;20060;-57
2023/06/14 02:46:18;;;;;;;6.93;6.35;;;11.50;99.90;;;;;;5000524;28;20022;-56
2023/06/14 02:48:45;;;;;;;10.48;6.65;;;11.50;99.90;;;;;;5000173;28;20021;-56
2023/06/14 02:51:10;;;;;;;6.63;6.07;;;11.50;99.90;;;;;;4998167;28;20149;-56
2023/06/14 02:53:40;;;;;;;7.82;6.70;;;11.40;99.90;;;;;;4998781;28;20124;-57
2023/06/14 02:56:06;;;;;;;6.88;6.18;;;11.40;99.90;;;;;;4997329;28;20042;-56
2023/06/14 02:58:32;;;;;;;8.02;6.47;;;11.30;99.90;;;;;;4999086;28;20023;-57
2023/06/14 03:01:03;;;;;;;6.57;5.97;;;11.30;99.90;;;;;;4998957;28;20109;-55
2023/06/14 03:03:29;;;;;;;8.38;6.57;;;11.30;99.90;;;;;;5003682;28;20030;-57
2023/06/14 03:05:56;;;;;;;9.10;6.30;;;11.30;99.90;;;;;;4997798;28;20030;-57
2023/06/14 03:08:26;;;;;;;7.15;6.55;;;11.20;99.90;;;;;;5000277;28;20026;-56
2023/06/14 03:10:52;;;;;;;8.00;7.13;;;11.10;99.90;;;;;;4997695;28;20034;-57
2023/06/14 03:13:22;;;;;;;8.35;7.65;;;11.00;99.90;;;;;;5002352;28;20026;-57
2023/06/14 03:15:50;;;;;;;6.65;6.15;;;11.00;99.90;;;;;;4996293;28;20512;-54
2023/06/14 03:18:19;;;;;;;7.18;6.47;;;11.00;99.90;;;;;;4996786;28;20149;-56
2023/06/14 03:20:46;;;;;;;8.25;7.45;;;11.00;99.90;;;;;;4996185;28;20029;-57
2023/06/14 03:23:12;;;;;;;12.48;7.43;;;10.90;99.90;;;;;;4996175;28;20651;-57
2023/06/14 03:25:38;;;;;;;7.18;6.57;;;10.90;99.90;;;;;;4998272;28;20037;-57
2023/06/14 03:28:07;;;;;;;7.38;6.07;;;10.80;99.90;;;;;;4996229;28;20026;-56
2023/06/14 03:30:32;;;;;;;7.13;6.53;;;10.80;99.90;;;;;;5002757;28;20126;-58
2023/06/14 03:33:01;;;;;;;7.47;6.75;;;10.70;99.90;;;;;;4999344;28;20037;-56
2023/06/14 03:35:27;;;;;;;7.43;6.57;;;10.60;99.90;;;;;;4994544;28;20030;-56
2023/06/14 03:37:52;;;;;;;7.75;6.68;;;10.70;99.90;;;;;;4995161;28;20053;-57
2023/06/14 03:40:20;;;;;;;8.60;7.07;;;10.70;99.90;;;;;;4999093;28;20025;-57
2023/06/14 03:42:45;;;;;;;7.65;7.05;;;10.80;99.90;;;;;;4996652;28;20450;-57
2023/06/14 03:45:11;;;;;;;7.85;7.15;;;10.90;99.90;;;;;;4997816;28;20030;-55
2023/06/14 03:47:37;;;;;;;6.97;6.32;;;11.00;99.90;;;;;;5000354;28;20022;-57
2023/06/14 03:50:03;;;;;;;8.02;7.20;;;11.20;99.90;;;;;;4999352;28;20030;-57
2023/06/14 03:52:29;;;;;;;7.85;7.07;;;11.40;99.90;;;;;;4998962;28;20036;-57
2023/06/14 03:54:55;;;;;;;7.60;6.00;;;11.50;99.90;;;;;;4994981;28;20026;-56
2023/06/14 03:57:23;;;;;;;6.75;6.15;;;11.50;99.90;;;;;;4997442;28;20027;-57
2023/06/14 03:59:48;;;;;;;7.10;6.50;;;11.60;99.90;;;;;;4998857;28;20044;-57
2023/06/14 04:02:17;;;;;;;8.25;7.45;;;11.70;99.90;;;;;;4997591;28;20035;-56
2023/06/14 04:04:48;;;;;;;7.13;6.35;;;11.80;99.90;;;;;;4996605;28;20057;-56
2023/06/14 04:07:20;;;;;;;15.38;6.78;;;11.90;99.90;;;;;;4994996;28;20033;-56
2023/06/14 04:09:46;;;;;;;6.90;6.40;;;12.00;99.90;;;;;;4996845;28;20625;-56
2023/06/14 04:12:12;;;;;;;8.57;6.72;;;12.10;99.90;;;;;;4996515;28;20029;-57
2023/06/14 04:14:40;;;;;;;6.93;6.32;;;12.10;99.90;;;;;;4992632;28;20110;-57
2023/06/14 04:17:06;;;;;;;6.53;6.00;;;12.10;99.90;;;;;;4994362;28;20026;-58
2023/06/14 04:19:32;;;;;;;7.30;6.55;;;12.00;99.90;;;;;;4999297;28;20399;-57
2023/06/14 04:22:02;;;;;;;7.20;6.68;;;12.00;99.90;;;;;;4998330;28;20045;-56
2023/06/14 04:24:31;;;;;;;6.90;6.30;;;12.00;99.90;;;;;;4997256;28;20470;-57
2023/06/14 04:26:58;;;;;;;7.57;6.88;;;12.00;99.90;;;;;;4996456;28;20038;-57
2023/06/14 04:29:26;;;;;;;7.82;7.03;;;12.00;99.90;;;;;;4996740;28;20034;-57
2023/06/14 04:31:53;;;;;;;8.38;7.30;;;12.00;99.90;;;;;;4994312;28;20114;-57
2023/06/14 04:34:19;;;;;;;7.70;7.00;;;12.00;99.90;;;;;;4995094;28;20105;-57
2023/06/14 04:36:48;;;;;;;8.13;7.10;;;12.00;99.90;;;;;;4998836;28;20105;-56
2023/06/14 04:39:22;;;;;;;8.20;6.93;;;12.10;99.90;;;;;;5000014;28;20491;-57
2023/06/14 04:41:51;;;;;;;8.50;7.90;;;12.20;99.90;;;;;;4996370;28;20042;-57
2023/06/14 04:44:18;;;;;;;9.23;6.95;;;12.40;99.90;;;;;;4996993;28;20516;-58
2023/06/14 04:46:47;;;;;;;8.02;7.38;;;12.60;99.90;;;;;;4995111;28;20034;-58
2023/06/14 04:49:16;;;;;;;8.23;7.53;;;12.70;99.90;;;;;;4997464;28;20463;-58
2023/06/14 04:51:42;;;;;;;8.07;7.38;;;12.90;99.90;;;;;;4997553;28;20035;-58
2023/06/14 04:54:14;;;;;;;8.43;7.63;;;13.10;99.90;;;;;;4996473;28;20033;-57
2023/06/14 04:56:42;;;;;;;12.68;8.18;;;13.20;99.90;;;;;;4995345;28;20092;-57
2023/06/14 04:59:08;;;;;;;10.65;7.70;;;13.30;99.90;;;;;;5000302;28;20076;-57
2023/06/14 05:01:34;;;;;;;6.93;6.38;;;13.50;99.90;;;;;;4994625;28;20144;-57
2023/06/14 05:04:00;;;;;;;7.13;6.38;;;13.60;99.90;;;;;;4996827;28;20566;-57
2023/06/14 05:06:27;;;;;;;6.25;5.72;;;13.70;99.90;;;;;;4996437;28;20030;-58
2023/06/14 05:08:53;;;;;;;5.93;5.32;;;13.80;99.90;;;;;;4995470;28;20030;-58
2023/06/14 05:11:19;;;;;;;12.43;5.82;;;14.00;99.90;;;;;;4995955;28;20030;-57
2023/06/14 05:13:45;;;;;;;7.50;5.40;;;14.10;99.90;;;;;;4996272;28;20503;-57
2023/06/14 05:16:11;;;;;;;5.82;5.22;;;14.20;99.90;;;;;;4995114;28;20065;-55
2023/06/14 05:18:38;;;;;;;6.00;5.45;;;14.30;99.90;;;;;;4996655;28;20027;-56
2023/06/14 05:21:06;;;;;;;6.25;5.75;;;14.40;99.90;;;;;;4993782;28;20401;-57
2023/06/14 05:23:32;;;;;;;5.88;5.25;;;14.60;99.90;;;;;;4994833;28;20041;-56
2023/06/14 05:25:58;;;;;;;5.70;5.03;;;14.70;99.90;;;;;;4997907;28;20026;-56
2023/06/14 05:28:24;;;;;;;5.82;5.30;;;14.70;99.90;;;;;;4995796;28;20037;-57
2023/06/14 05:30:51;;;;;;;4.88;4.47;;;14.80;99.90;;;;;;4995901;28;20038;-56
2023/06/14 05:33:16;;;;;;;5.22;4.72;;;14.90;99.90;;;;;;4997202;28;20038;-57
2023/06/14 05:35:42;;;;;;;5.72;5.05;;;15.00;99.90;;;;;;4998131;28;20042;-57
2023/06/14 05:38:08;;;;;;;7.28;5.13;;;15.20;99.90;;;;;;4996611;28;20065;-57
2023/06/14 05:40:34;;;;;;;5.45;4.95;;;15.30;99.90;;;;;;4998583;28;20022;-56
2023/06/14 05:42:59;;;;;;;5.45;4.63;;;15.40;99.90;;;;;;4999419;28;20254;-55
2023/06/14 05:45:25;;;;;;;6.70;4.07;;;15.50;99.90;;;;;;5001442;28;20026;-57
2023/06/14 05:47:52;;;;;;;5.95;4.90;;;15.50;99.90;;;;;;5001402;28;20709;-57
2023/06/14 05:50:17;;;;;;;6.40;5.57;;;15.60;99.90;;;;;;5002711;28;20041;-58
2023/06/14 05:52:43;;;;;;;8.75;4.88;;;15.60;99.90;;;;;;5001460;28;20018;-58
2023/06/14 05:55:11;;;;;;;5.57;4.47;;;15.70;99.90;;;;;;5000801;28;20108;-58
2023/06/14 05:57:37;;;;;;;11.80;5.50;;;15.60;99.90;;;;;;5001221;28;20038;-58
2023/06/14 06:00:14;;;;;;;5.32;4.82;;;15.70;99.90;;;;;;5002557;28;20030;-58
2023/06/14 06:02:42;;;;;;;5.57;4.38;;;15.70;99.90;;;;;;5002056;28;20079;-57
2023/06/14 06:05:08;;;;;;;6.50;4.57;;;15.70;99.90;;;;;;5002062;28;20026;-58
2023/06/14 06:07:34;;;;;;;5.95;4.78;;;15.70;99.90;;;;;;5001172;28;20437;-57
2023/06/14 06:10:00;;;;;;;6.20;5.25;;;15.80;99.90;;;;;;5000060;28;20026;-56
2023/06/14 06:12:25;;;;;;;7.00;5.07;;;15.80;99.90;;;;;;5001780;28;20121;-58
2023/06/14 06:14:51;;;;;;;6.72;4.97;;;15.80;99.90;;;;;;5001107;28;20041;-56
2023/06/14 06:17:16;;;;;;;5.93;5.32;;;15.90;99.90;;;;;;5004403;28;20394;-55
2023/06/14 06:19:42;;;;;;;6.13;4.20;;;15.90;99.90;;;;;;4999258;28;20026;-59
2023/06/14 06:22:07;;;;;;;10.65;4.88;;;16.00;99.90;;;;;;5002081;28;20398;-57
2023/06/14 06:24:33;;;;;;;4.78;4.35;;;16.00;99.90;;;;;;5000283;28;20037;-57
2023/06/14 06:27:00;;;;;;;5.43;4.93;;;16.00;99.90;;;;;;5001930;28;20037;-54
2023/06/14 06:29:25;;;;;;;5.85;3.88;;;16.00;99.90;;;;;;5003343;28;20061;-58
2023/06/14 06:31:51;;;;;;;6.32;4.40;;;16.10;99.90;;;;;;4999791;28;20085;-57
2023/06/14 06:34:17;;;;;;;6.38;4.03;;;16.20;99.90;;;;;;5001142;28;20030;-58
2023/06/14 06:36:42;;;;;;;5.38;4.35;;;16.20;99.90;;;;;;4999051;28;20029;-59
2023/06/14 06:39:11;;;;;;;10.85;4.40;;;16.30;99.90;;;;;;4998076;28;20092;-58
2023/06/14 06:41:39;;;;;;;5.00;4.22;;;16.30;99.90;;;;;;5000932;28;20183;-58
2023/06/14 06:44:06;;;;;;;5.85;4.40;;;16.40;99.90;;;;;;4998876;28;20022;-58
2023/06/14 06:46:32;;;;;;;4.05;3.65;;;16.40;99.90;;;;;;4999191;28;20026;-57
2023/06/14 06:48:58;;;;;;;6.25;4.45;;;16.40;99.90;;;;;;4998774;28;20027;-58
2023/06/14 06:51:24;;;;;;;3.53;3.22;;;16.50;99.90;;;;;;4997411;28;20076;-57
2023/06/14 06:53:53;;;;;;;4.05;3.65;;;16.60;99.90;;;;;;4998587;28;20031;-58
2023/06/14 06:56:20;;;;;;;4.03;3.28;;;16.70;99.90;;;;;;4998318;28;20062;-59
2023/06/14 06:58:45;;;;;;;5.70;3.63;;;16.80;99.90;;;;;;4999534;28;20030;-58
2023/06/14 07:01:11;;;;;;;3.88;3.40;;;16.80;99.90;;;;;;5000209;28;20027;-57
2023/06/14 07:03:37;;;;;;;4.50;3.30;;;16.90;99.90;;;;;;4999840;28;20110;-58
2023/06/14 07:06:03;;;;;;;4.07;3.60;;;17.00;99.90;;;;;;4998682;28;20030;-56
2023/06/14 07:08:29;;;;;;;7.88;3.97;;;17.00;99.90;;;;;;5000558;28;20023;-57
2023/06/14 07:10:55;;;;;;;9.25;3.58;;;17.00;99.10;;;;;;4999237;28;20540;-58
2023/06/14 07:13:20;;;;;;;3.30;3.00;;;17.10;99.40;;;;;;4997268;28;20027;-58
2023/06/14 07:15:47;;;;;;;5.38;3.35;;;17.10;98.80;;;;;;4998559;28;20031;-59
2023/06/14 07:18:12;;;;;;;3.58;3.28;;;17.20;97.30;;;;;;4997010;28;20030;-59
2023/06/14 07:20:42;;;;;;;6.00;3.13;;;17.40;98.60;;;;;;4999797;28;20034;-58
2023/06/14 07:23:08;;;;;;;5.15;3.97;;;17.40;96.50;;;;;;4997247;28;20033;-58
2023/06/14 07:25:34;;;;;;;2.92;2.63;;;17.50;97.10;;;;;;4999914;28;20018;-57
2023/06/14 07:27:59;;;;;;;6.00;3.42;;;17.50;96.80;;;;;;5003375;28;20543;-56
2023/06/14 07:30:26;;;;;;;3.90;3.45;;;17.60;97.60;;;;;;4998702;28;20494;-57
2023/06/14 07:32:53;;;;;;;4.35;3.15;;;17.70;99.70;;;;;;4998724;28;20029;-57
2023/06/14 07:35:19;;;;;;;8.25;3.63;;;17.80;97.10;;;;;;4999381;28;20018;-57
2023/06/14 07:37:46;;;;;;;3.67;2.92;;;17.80;96.90;;;;;;4997140;28;20026;-57
2023/06/14 07:40:13;;;;;;;2.85;2.55;;;17.90;95.50;;;;;;4998608;28;20042;-56
2023/06/14 07:42:39;;;;;;;4.88;2.90;;;17.90;93.80;;;;;;4999174;28;20493;-59
2023/06/14 07:45:06;;;;;;;3.42;2.80;;;17.90;93.10;;;;;;4999715;28;20149;-58
2023/06/14 07:47:32;;;;;;;5.20;2.55;;;17.90;94.10;;;;;;4998616;28;20105;-58
2023/06/14 07:49:57;;;;;;;2.70;2.40;;;18.10;93.00;;;;;;4995952;28;20022;-58
2023/06/14 07:52:23;;;;;;;2.70;1.80;;;18.10;91.80;;;;;;4996616;28;20044;-59
2023/06/14 07:54:49;;;;;;;2.88;2.63;;;18.20;92.20;;;;;;4997958;28;20026;-58
2023/06/14 07:57:14;;;;;;;5.53;2.67;;;18.20;93.60;;;;;;4995216;28;20019;-57
2023/06/14 07:59:40;;;;;;;3.80;2.20;;;18.30;91.40;;;;;;4997372;28;20169;-57
2023/06/14 08:02:06;;;;;;;4.68;2.80;;;18.30;91.10;;;;;;4998276;28;20038;-56
2023/06/14 08:04:32;;;;;;;5.20;2.38;;;18.50;92.00;;;;;;4996918;28;20033;-58
2023/06/14 08:06:58;;;;;;;3.92;2.45;;;18.50;90.50;;;;;;4997850;28;20026;-58
2023/06/14 08:09:25;;;;;;;3.45;2.63;;;18.60;90.20;;;;;;4997675;28;20386;-58
2023/06/14 08:11:50;;;;;;;3.17;2.10;;;18.70;90.60;;;;;;4997505;28;20022;-58
2023/06/14 08:14:16;;;;;;;6.15;2.30;;;18.70;90.30;;;;;;4997266;28;20022;-57
2023/06/14 08:16:42;;;;;;;4.43;2.47;;;18.80;85.40;;;;;;4995334;28;20010;-58
2023/06/14 08:19:08;;;;;;;2.67;1.90;;;18.90;86.10;;;;;;4998026;28;20026;-59
2023/06/14 08:21:36;;;;;;;4.30;2.33;;;18.90;87.20;;;;;;4994905;28;20037;-58
2023/06/14 08:24:02;;;;;;;4.07;2.58;;;19.00;86.50;;;;;;4994068;28;20422;-57
2023/06/14 08:26:31;;;;;;;2.97;2.20;;;19.10;84.40;;;;;;4998920;28;20037;-57
2023/06/14 08:28:57;;;;;;;6.75;2.22;;;19.20;83.80;;;;;;4995302;28;20026;-58
2023/06/14 08:31:23;;;;;;;2.30;2.10;;;19.20;81.50;;;;;;4997856;28;20092;-58
2023/06/14 08:33:49;;;;;;;4.15;2.10;;;19.30;81.10;;;;;;4997122;28;20448;-57
2023/06/14 08:36:15;;;;;;;3.03;2.03;;;19.40;82.20;;;;;;4996053;28;20069;-58
2023/06/14 08:38:40;;;;;;;2.63;2.00;;;19.40;84.40;;;;;;4998109;28;20079;-58
2023/06/14 08:41:07;;;;;;;2.92;2.05;;;19.50;83.20;;;;;;4994718;28;20112;-58
2023/06/14 08:43:33;;;;;;;3.08;2.70;;;19.60;80.80;;;;;;4992097;28;20037;-58
2023/06/14 08:46:02;;;;;;;2.28;1.95;;;19.70;80.90;;;;;;4999936;28;20030;-58
2023/06/14 08:48:28;;;;;;;2.65;1.98;;;19.70;80.50;;;;;;4996844;28;20503;-58
2023/06/14 08:51:01;;;;;;;2.78;2.22;;;19.80;82.00;;;;;;4992196;28;20125;-58
2023/06/14 08:53:31;;;;;;;2.42;2.22;;;19.90;81.00;;;;;;4997924;28;20035;-55
2023/06/14 08:56:01;;;;;;;2.10;1.92;;;20.00;82.20;;;;;;4996459;28;20033;-56
2023/06/14 08:58:29;;;;;;;2.13;1.92;;;20.10;80.90;;;;;;4999039;28;20409;-57
2023/06/14 09:00:55;;;;;;;3.70;2.05;;;20.20;79.00;;;;;;4997963;28;20041;-57
2023/06/14 09:03:23;;;;;;;3.53;2.17;;;20.30;74.50;;;;;;4997996;28;20037;-58
2023/06/14 09:05:49;;;;;;;2.60;2.40;;;20.40;76.20;;;;;;4996111;28;20045;-58
2023/06/14 09:08:16;;;;;;;2.50;2.30;;;20.40;79.10;;;;;;4995279;28;20033;-58
2023/06/14 09:10:41;;;;;;;4.70;2.42;;;20.50;75.90;;;;;;4997339;28;20034;-58
2023/06/14 09:13:07;;;;;;;1.77;1.67;;;20.60;76.30;;;;;;5004059;28;20443;-58
2023/06/14 09:15:33;;;;;;;2.28;1.95;;;20.60;73.50;;;;;;4997071;28;20034;-58
2023/06/14 09:18:01;;;;;;;4.68;2.42;;;20.80;74.90;;;;;;4998598;28;20029;-56
2023/06/14 09:20:30;;;;;;;3.65;2.55;;;20.90;75.30;;;;;;5001833;28;20075;-59
2023/06/14 09:22:55;;;;;;;2.45;2.25;;;20.90;74.30;;;;;;5002003;28;20124;-58
2023/06/14 09:25:22;;;;;;;2.35;2.15;;;21.00;73.00;;;;;;4999376;28;20686;-58
2023/06/14 09:27:48;;;;;;;2.28;1.98;;;21.10;71.40;;;;;;4996508;28;20042;-58
2023/06/14 09:30:13;;;;;;;5.35;2.30;;;21.30;71.50;;;;;;4999323;28;20048;-57
2023/06/14 09:32:39;;;;;;;2.95;2.53;;;21.40;69.20;;;;;;5000632;28;20049;-59
2023/06/14 09:35:09;;;;;;;2.35;2.10;;;21.50;67.70;;;;;;4999115;28;20026;-58
2023/06/14 09:37:37;;;;;;;2.97;2.05;;;21.60;72.80;;;;;;4998733;28;20015;-58
2023/06/14 09:40:03;;;;;;;2.42;1.92;;;21.70;68.30;;;;;;4999550;28;20046;-58
2023/06/14 09:42:29;;;;;;;2.33;2.08;;;21.80;69.50;;;;;;4983666;28;20034;-58
2023/06/14 09:44:56;;;;;;;6.03;2.40;;;22.00;69.00;;;;;;5000797;28;20037;-58
2023/06/14 09:47:23;;;;;;;6.55;2.67;;;22.20;69.70;;;;;;4983646;28;20121;-57
2023/06/14 09:49:50;;;;;;;5.50;2.30;;;22.20;67.50;;;;;;4999210;28;20022;-59
2023/06/14 09:52:18;;;;;;;3.05;2.20;;;22.40;69.60;;;;;;5001378;28;20387;-58
2023/06/14 09:54:52;;;;;;;5.03;1.65;;;22.60;66.40;;;;;;4998390;28;20030;-57
2023/06/14 09:57:25;;;;;;;2.80;2.50;;;22.70;64.10;;;;;;4998140;28;20030;-58
2023/06/14 09:59:56;;;;;;;2.33;2.08;;;22.90;63.50;;;;;;5000929;28;20026;-58
2023/06/14 10:02:26;;;;;;;3.47;2.40;;;23.00;63.40;;;;;;4998569;28;20023;-57
2023/06/14 10:05:12;;;;;;;3.95;2.05;;;22.90;63.90;;;;;;5000355;28;20097;-58
2023/06/14 10:07:59;;;;;;;7.07;2.20;;;23.00;63.00;;;;;;5000377;28;20670;-58
2023/06/14 10:10:25;;;;;;;2.25;2.05;;;23.20;62.70;;;;;;4999134;28;20046;-57
2023/06/14 10:12:51;;;;;;;4.63;1.88;;;23.40;61.50;;;;;;4999170;28;20121;-59
2023/06/14 10:15:23;;;;;;;2.20;2.00;;;23.60;61.90;;;;;;4998833;28;20041;-59
2023/06/14 10:17:56;;;;;;;4.88;2.28;;;23.80;62.30;;;;;;5000057;28;20073;-56
2023/06/14 10:20:37;;;;;;;2.53;2.33;;;24.10;60.70;;;;;;4995625;28;20104;-58
2023/06/14 10:23:24;;;;;;;2.22;2.03;;;24.30;60.30;;;;;;4996361;28;20137;-58
2023/06/14 10:25:55;;;;;;;2.67;2.10;;;24.50;61.60;;;;;;4996812;28;20025;-58
2023/06/14 10:28:24;;;;;;;2.30;1.83;;;24.50;59.50;;;;;;4997597;28;20024;-58
2023/06/14 10:31:09;;;;;;;3.05;2.20;;;24.50;58.60;;;;;;4997584;28;20022;-59
2023/06/14 10:33:47;;;;;;;2.15;1.77;;;24.10;57.90;;;;;;4996346;28;20645;-58
2023/06/14 10:36:22;;;;;;;2.97;2.42;;;23.80;59.80;;;;;;5001663;28;20465;-58
2023/06/14 10:38:58;;;;;;;2.30;2.10;;;23.80;60.40;;;;;;4998211;28;20410;-59
2023/06/14 10:41:27;;;;;;;3.13;1.90;;;23.90;61.40;;;;;;4999066;28;20064;-58
2023/06/14 10:44:10;;;;;;;4.32;2.22;;;23.90;59.10;;;;;;4998335;28;20065;-58
2023/06/14 10:46:35;;;;;;;3.15;2.00;;;23.90;60.00;;;;;;4998548;28;20561;-58
2023/06/14 10:49:03;;;;;;;3.10;2.00;;;24.00;60.30;;;;;;4998346;28;20046;-59
2023/06/14 10:51:30;;;;;;;3.15;1.95;;;24.10;59.40;;;;;;4999727;28;20119;-58
2023/06/14 10:53:58;;;;;;;2.85;1.90;;;24.20;56.00;;;;;;4997556;28;20034;-58
2023/06/14 10:56:28;;;;;;;2.78;1.60;;;24.10;56.30;;;;;;4997841;28;20080;-58
2023/06/14 10:58:56;;;;;;;2.20;1.58;;;24.10;57.10;;;;;;4998745;28;20026;-58
2023/06/14 11:01:39;;;;;;;2.67;2.05;;;24.10;56.60;;;;;;4998533;28;20398;-58
2023/06/14 11:04:12;;;;;;;3.10;1.77;;;24.10;58.00;;;;;;4997311;28;20034;-59
2023/06/14 11:06:48;;;;;;;2.20;1.60;;;24.40;56.80;;;;;;4994474;28;20030;-58
2023/06/14 11:09:22;;;;;;;1.70;1.60;;;24.50;55.90;;;;;;4997554;28;20117;-58
2023/06/14 11:11:50;;;;;;;3.50;2.08;;;24.60;54.00;;;;;;4997490;28;20440;-59
2023/06/14 11:14:16;;;;;;;3.28;1.88;;;24.70;55.70;;;;;;4998412;28;20042;-59
2023/06/14 11:16:42;;;;;;;2.00;1.80;;;24.80;56.00;;;;;;4999671;28;20370;-58
2023/06/14 11:19:07;;;;;;;3.03;1.95;;;24.90;57.40;;;;;;5001075;28;20022;-59
2023/06/14 11:21:33;;;;;;;1.80;1.55;;;25.10;56.30;;;;;;4996504;28;20022;-59
2023/06/14 11:23:59;;;;;;;3.47;1.92;;;25.10;54.30;;;;;;4999068;28;20038;-58
2023/06/14 11:26:29;;;;;;;3.63;2.20;;;25.20;54.20;;;;;;4996107;28;20096;-59
2023/06/14 11:28:57;;;;;;;2.70;1.88;;;25.30;56.00;;;;;;4996029;28;20022;-58
2023/06/14 11:31:23;;;;;;;3.13;1.60;;;25.40;53.10;;;;;;4994204;28;20045;-59
2023/06/14 11:33:54;;;;;;;2.22;1.75;;;25.40;53.40;;;;;;4996339;28;20062;-59
2023/06/14 11:36:19;;;;;;;2.75;1.63;;;25.60;54.00;;;;;;4998179;28;20022;-58
2023/06/14 11:38:45;;;;;;;2.78;1.85;;;25.60;54.00;;;;;;4997878;28;20022;-59
2023/06/14 11:41:11;;;;;;;2.33;1.88;;;25.70;54.60;;;;;;4998008;28;20037;-60
2023/06/14 11:43:37;;;;;;;2.50;2.00;;;25.70;53.20;;;;;;4996624;28;20031;-59
2023/06/14 11:46:03;;;;;;;3.15;1.80;;;25.40;53.20;;;;;;4993517;28;20103;-59
2023/06/14 11:48:42;;;;;;;6.05;1.80;;;24.80;54.10;;;;;;4997394;28;20026;-59
2023/06/14 11:51:08;;;;;;;2.95;2.25;;;24.20;54.80;;;;;;4995703;28;20044;-58
2023/06/14 11:53:34;;;;;;;5.45;2.42;;;23.70;56.40;;;;;;4997908;28;20026;-58
2023/06/14 11:56:01;;;;;;;2.47;2.10;;;23.20;57.70;;;;;;4976402;28;20030;-59
2023/06/14 11:58:27;;;;;;;3.05;1.90;;;23.00;59.20;;;;;;4996392;28;20061;-58
2023/06/14 12:00:53;;;;;;;2.33;2.13;;;22.80;60.70;;;;;;4999081;28;20052;-59
2023/06/14 12:03:25;;;;;;;2.20;2.00;;;23.00;60.10;;;;;;4994499;28;20058;-60
2023/06/14 12:06:01;;;;;;;2.42;1.95;;;23.40;60.30;;;;;;4993916;28;20081;-59
2023/06/14 12:08:39;;;;;;;2.58;2.17;;;23.80;58.70;;;;;;4997648;28;20104;-58
2023/06/14 12:11:08;;;;;;;2.40;2.10;;;24.10;58.50;;;;;;4998598;28;20975;-59
2023/06/14 12:13:34;;;;;;;1.95;1.73;;;24.30;56.50;;;;;;4997705;28;20030;-58
2023/06/14 12:16:01;;;;;;;5.07;2.25;;;24.30;55.60;;;;;;4994766;28;20033;-59
2023/06/14 12:18:37;;;;;;;2.22;2.10;;;24.20;56.60;;;;;;4997465;28;20149;-59
2023/06/14 12:21:07;;;;;;;3.30;1.90;;;24.10;56.40;;;;;;4996898;28;20034;-59
2023/06/14 12:23:49;;;;;;;1.90;1.80;;;24.10;54.80;;;;;;4994759;28;20107;-58
2023/06/14 12:26:19;;;;;;;1.70;1.60;;;24.40;56.40;;;;;;4997901;28;20030;-59
2023/06/14 12:28:46;;;;;;;1.80;1.70;;;24.80;56.10;;;;;;5000515;28;20089;-59
2023/06/14 12:31:13;;;;;;;3.55;1.88;;;24.90;53.50;;;;;;4996154;28;20494;-58
2023/06/14 12:33:40;;;;;;;2.20;1.77;;;25.10;50.90;;;;;;4996766;28;20054;-59
2023/06/14 12:36:08;;;;;;;4.03;1.95;;;25.30;54.30;;;;;;4995288;28;20032;-59
2023/06/14 12:38:33;;;;;;;2.40;1.77;;;25.50;54.20;;;;;;4996930;28;20030;-58
2023/06/14 12:41:00;;;;;;;2.75;2.10;;;25.50;54.00;;;;;;4997880;28;20041;-56
2023/06/14 12:43:26;;;;;;;2.40;1.90;;;25.30;54.50;;;;;;4997743;28;20023;-59
2023/06/14 12:45:51;;;;;;;3.15;1.83;;;25.10;53.40;;;;;;4996702;28;20022;-59
2023/06/14 12:48:17;;;;;;;2.20;1.70;;;24.80;53.90;;;;;;4995965;28;20025;-59